TimeCST,TemperatureF,Dew PointF,Humidity,Sea Level PressureIn,VisibilityMPH,Wind Direction,Wind SpeedMPH,Gust SpeedMPH,PrecipitationIn,Events,Conditions,WindDirDegrees,DateUTC
12:15 AM,39.2,23.0,52,29.97,10.0,South,10.4,-,N/A,,Clear,190,2012-12-14 06:15:00
12:35 AM,37.4,23.0,56,29.95,10.0,South,8.1,-,N/A,,Clear,180,2012-12-14 06:35:00
12:55 AM,37.4,23.0,56,29.94,10.0,South,8.1,-,N/A,,Clear,180,2012-12-14 06:55:00
1:15 AM,35.6,23.0,60,29.95,10.0,South,10.4,-,N/A,,Clear,180,2012-12-14 07:15:00
1:35 AM,37.4,23.0,56,29.94,10.0,South,12.7,-,N/A,,Clear,190,2012-12-14 07:35:00
1:55 AM,37.4,24.8,60,29.94,10.0,South,15.0,-,N/A,,Clear,190,2012-12-14 07:55:00
2:15 AM,37.4,24.8,60,29.93,10.0,South,12.7,-,N/A,,Clear,190,2012-12-14 08:15:00
2:35 AM,37.4,24.8,60,29.94,10.0,SSW,11.5,-,N/A,,Clear,200,2012-12-14 08:35:00
2:55 AM,37.4,24.8,60,29.94,10.0,SSW,10.4,-,N/A,,Clear,200,2012-12-14 08:55:00
3:15 AM,37.4,24.8,60,29.94,10.0,SSW,13.8,-,N/A,,Clear,200,2012-12-14 09:15:00
3:35 AM,37.4,24.8,60,29.94,10.0,SSW,11.5,-,N/A,,Clear,200,2012-12-14 09:35:00
3:55 AM,37.4,24.8,60,29.94,10.0,SSW,11.5,-,N/A,,Clear,200,2012-12-14 09:55:00
4:15 AM,35.6,24.8,65,29.93,10.0,SSW,6.9,-,N/A,,Clear,200,2012-12-14 10:15:00
4:35 AM,35.6,24.8,65,29.92,10.0,South,6.9,-,N/A,,Clear,190,2012-12-14 10:35:00
4:55 AM,35.6,26.6,70,29.92,10.0,South,10.4,-,N/A,,Clear,190,2012-12-14 10:55:00
5:15 AM,35.6,24.8,65,29.92,10.0,South,11.5,-,N/A,,Clear,190,2012-12-14 11:15:00
5:35 AM,33.8,24.8,70,29.92,10.0,South,10.4,-,N/A,,Clear,190,2012-12-14 11:35:00
5:55 AM,35.6,26.6,70,29.91,10.0,South,8.1,-,N/A,,Clear,190,2012-12-14 11:55:00
6:15 AM,35.6,26.6,70,29.91,10.0,South,9.2,-,N/A,,Clear,180,2012-12-14 12:15:00
6:35 AM,35.6,26.6,70,29.90,10.0,South,10.4,-,N/A,,Clear,180,2012-12-14 12:35:00
6:55 AM,35.6,26.6,70,29.91,10.0,South,10.4,-,N/A,,Clear,180,2012-12-14 12:55:00
7:15 AM,35.6,26.6,70,29.91,10.0,South,10.4,-,N/A,,Clear,190,2012-12-14 13:15:00
7:35 AM,35.6,28.4,75,29.90,10.0,South,10.4,-,N/A,,Clear,180,2012-12-14 13:35:00
7:55 AM,35.6,28.4,75,29.90,10.0,South,10.4,-,N/A,,Clear,180,2012-12-14 13:55:00
8:15 AM,37.4,30.2,75,29.90,10.0,South,9.2,-,N/A,,Clear,170,2012-12-14 14:15:00
8:35 AM,37.4,30.2,75,29.89,10.0,South,11.5,-,N/A,,Clear,170,2012-12-14 14:35:00
8:55 AM,39.2,32.0,75,29.89,10.0,South,17.3,-,N/A,,Clear,170,2012-12-14 14:55:00
9:15 AM,41.0,33.8,76,29.89,10.0,South,16.1,-,N/A,,Clear,170,2012-12-14 15:15:00
9:35 AM,41.0,33.8,76,29.88,10.0,South,16.1,-,N/A,,Clear,170,2012-12-14 15:35:00
9:55 AM,42.8,35.6,76,29.88,10.0,South,16.1,-,N/A,,Clear,170,2012-12-14 15:55:00
10:15 AM,44.6,35.6,71,29.88,10.0,South,19.6,23.0,N/A,,Clear,170,2012-12-14 16:15:00
10:35 AM,44.6,35.6,71,29.87,10.0,South,20.7,-,N/A,,Clear,170,2012-12-14 16:35:00
10:55 AM,48.2,37.4,66,29.86,10.0,South,21.9,-,N/A,,Clear,170,2012-12-14 16:55:00
11:15 AM,48.2,39.2,71,29.86,10.0,South,25.3,31.1,N/A,,Clear,170,2012-12-14 17:15:00
11:35 AM,51.8,39.2,62,29.85,10.0,South,24.2,29.9,N/A,,Clear,190,2012-12-14 17:35:00
11:55 AM,51.8,39.2,62,29.82,10.0,South,20.7,27.6,N/A,,Clear,190,2012-12-14 17:55:00
12:15 PM,51.8,41.0,67,29.80,10.0,South,18.4,-,N/A,,Clear,180,2012-12-14 18:15:00
12:35 PM,53.6,41.0,62,29.80,10.0,South,23.0,-,N/A,,Clear,170,2012-12-14 18:35:00
12:55 PM,55.4,42.8,63,29.78,10.0,South,26.5,29.9,N/A,,Clear,170,2012-12-14 18:55:00
1:15 PM,55.4,42.8,63,29.75,10.0,SSE,24.2,29.9,N/A,,Mostly Cloudy,160,2012-12-14 19:15:00
1:35 PM,55.4,42.8,63,29.74,10.0,SSE,20.7,25.3,N/A,,Overcast,160,2012-12-14 19:35:00
1:55 PM,55.4,42.8,63,29.72,10.0,South,25.3,28.8,N/A,,Scattered Clouds,180,2012-12-14 19:55:00
2:15 PM,55.4,42.8,63,29.73,10.0,South,25.3,35.7,N/A,,Scattered Clouds,190,2012-12-14 20:15:00
2:35 PM,53.6,42.8,67,29.72,10.0,South,20.7,26.5,N/A,,Overcast,180,2012-12-14 20:35:00
2:55 PM,53.6,42.8,67,29.71,10.0,South,21.9,25.3,N/A,,Overcast,180,2012-12-14 20:55:00
3:15 PM,51.8,42.8,71,29.70,10.0,South,15.0,18.4,N/A,,Overcast,170,2012-12-14 21:15:00
3:35 PM,51.8,42.8,71,29.69,10.0,SSE,16.1,20.7,N/A,,Overcast,160,2012-12-14 21:35:00
3:55 PM,51.8,42.8,71,29.68,10.0,South,19.6,25.3,N/A,,Overcast,170,2012-12-14 21:55:00
4:15 PM,51.8,42.8,71,29.67,10.0,South,16.1,-,N/A,,Overcast,170,2012-12-14 22:15:00
4:35 PM,50.0,44.6,82,29.66,10.0,SSE,21.9,26.5,N/A,,Overcast,160,2012-12-14 22:35:00
4:55 PM,50.0,44.6,82,29.67,9.0,SSE,16.1,-,N/A,,Overcast,160,2012-12-14 22:55:00
5:15 PM,48.2,44.6,87,29.68,10.0,SSE,17.3,-,N/A,,Overcast,160,2012-12-14 23:15:00
5:35 PM,48.2,44.6,87,29.66,10.0,SSE,13.8,-,0.01,,Overcast,160,2012-12-14 23:35:00
5:55 PM,48.2,44.6,87,29.66,10.0,SSE,18.4,21.9,0.01,,Overcast,150,2012-12-14 23:55:00
6:15 PM,48.2,44.6,87,29.64,9.0,SSE,15.0,21.9,N/A,,Overcast,150,2012-12-15 00:15:00
6:35 PM,48.2,44.6,87,29.63,5.0,SSE,18.4,25.3,N/A,,Overcast,150,2012-12-15 00:35:00
6:55 PM,48.2,46.4,93,29.62,3.0,SSE,20.7,-,N/A,,Overcast,150,2012-12-15 00:55:00
7:15 PM,48.2,46.4,93,29.60,3.0,SSE,20.7,27.6,N/A,,Overcast,150,2012-12-15 01:15:00
7:35 PM,48.2,46.4,93,29.59,5.0,SSE,18.4,-,0.01,,Overcast,150,2012-12-15 01:35:00
7:55 PM,48.2,46.4,93,29.57,5.0,SE,20.7,27.6,0.03,,Overcast,140,2012-12-15 01:55:00
8:15 PM,48.2,44.6,87,29.55,5.0,SE,23.0,27.6,0.01,,Overcast,140,2012-12-15 02:15:00
8:35 PM,48.2,44.6,87,29.55,5.0,SSE,21.9,31.1,0.02,,Overcast,160,2012-12-15 02:35:00
8:55 PM,48.2,44.6,87,29.54,3.0,SSE,24.2,-,0.03,,Overcast,160,2012-12-15 02:55:00
9:15 PM,48.2,44.6,87,29.51,5.0,SSE,23.0,28.8,0.01,,Overcast,160,2012-12-15 03:15:00
9:35 PM,46.4,42.8,87,29.41,6.0,ESE,19.6,28.8,0.01,,Overcast,120,2012-12-15 03:35:00
9:55 PM,46.4,42.8,87,29.41,9.0,SE,24.2,32.2,0.01,,Overcast,140,2012-12-15 03:55:00
10:15 PM,46.4,42.8,87,29.42,10.0,SSE,28.8,35.7,0.01,,Overcast,150,2012-12-15 04:15:00
10:35 PM,46.4,42.8,87,29.44,10.0,South,23.0,28.8,0.01,,Overcast,170,2012-12-15 04:35:00
10:55 PM,46.4,42.8,87,29.42,5.0,South,25.3,29.9,0.02,,Overcast,180,2012-12-15 04:55:00
11:15 PM,46.4,42.8,87,29.40,10.0,South,19.6,27.6,N/A,,Overcast,190,2012-12-15 05:15:00
11:35 PM,48.2,44.6,87,29.39,10.0,South,17.3,-,N/A,,Overcast,180,2012-12-15 05:35:00
11:55 PM,48.2,44.6,87,29.38,10.0,SSW,19.6,23.0,N/A,,Overcast,200,2012-12-15 05:55:00